Concordia, Kansas
Current Conditions -  °F | °C
As of 1:55 AM on Sunday 21 Dec 2014 (Local Time) from KCNK Reporting Station
Clear Clear  
Wind Chill: -2°   Ceiling: Unl
Heat Index:   Visibility: 8mi
Dew Point:   Wind: 12mph
Humidity: 100%   Direction: 200°SSW
Pressure: 29.97"   Gusts: NA
Location:  39.57°N, 97.66°W
Report Text: KCNK 210755Z AUTO 20010KT 8SM CLR 02/02 A2997 RMK AO2 SLP159 T00220022 $
Loading
Personal Weather Stations






























Interactive Weather Map New forecast layout! Learn more

10-Day Weather Forecast

Advertisements
Track Severe Weather on mobile